createdAt,value
2022-10-20T00:00:00.843Z,65.07
2022-10-20T00:00:33.926Z,64.73
2022-10-20T00:01:26.982Z,64.69
2022-10-20T00:02:00.032Z,64.59
2022-10-20T00:02:33.198Z,64.42
2022-10-20T00:03:06.447Z,63.89
2022-10-20T00:03:39.333Z,63.85
2022-10-20T00:04:12.372Z,63.77
2022-10-20T00:04:45.417Z,63.53
2022-10-20T00:05:18.465Z,62.93
2022-10-20T00:05:51.660Z,62.74
2022-10-20T00:06:24.553Z,62.75
2022-10-20T00:06:57.623Z,62.47
2022-10-20T00:07:30.593Z,62.79
2022-10-20T00:08:03.467Z,62.78
2022-10-20T00:08:36.583Z,62.22
2022-10-20T00:09:09.677Z,61.54
2022-10-20T00:09:42.671Z,61.25
2022-10-20T00:10:15.732Z,60.61
2022-10-20T00:10:48.839Z,59.99
2022-10-20T00:11:21.880Z,59.69
2022-10-20T00:11:55.209Z,59.74
2022-10-20T00:12:28.214Z,59.33
2022-10-20T00:13:01.130Z,57.92
2022-10-20T00:13:34.022Z,55.87
2022-10-20T00:14:06.967Z,54.60
2022-10-20T00:14:39.971Z,53.65
2022-10-20T00:15:12.968Z,52.74
2022-10-20T00:15:45.812Z,52.10
2022-10-20T00:16:18.822Z,51.67
2022-10-20T00:16:51.877Z,51.43
2022-10-20T00:17:24.851Z,51.14
2022-10-20T00:17:57.787Z,50.84
2022-10-20T00:18:30.915Z,50.63
2022-10-20T00:19:04.127Z,50.57
2022-10-20T00:19:37.229Z,50.69
2022-10-20T00:20:10.154Z,50.37
2022-10-20T00:20:43.262Z,50.38
2022-10-20T00:21:16.382Z,50.39
2022-10-20T00:21:49.511Z,50.39
2022-10-20T00:22:22.518Z,50.38
2022-10-20T00:22:55.603Z,50.50
2022-10-20T00:23:28.621Z,50.57
2022-10-20T00:24:01.752Z,50.60
2022-10-20T00:24:34.693Z,50.76
2022-10-20T00:25:07.705Z,50.74
2022-10-20T00:25:40.879Z,50.83
2022-10-20T00:26:13.858Z,50.98
2022-10-20T00:26:46.842Z,50.98
2022-10-20T00:27:19.799Z,51.18
2022-10-20T00:27:52.899Z,51.25
2022-10-20T00:28:25.871Z,51.26
2022-10-20T00:28:58.901Z,51.41
2022-10-20T00:29:31.811Z,51.47
2022-10-20T00:30:04.785Z,51.54
2022-10-20T00:30:38.404Z,51.69
2022-10-20T00:31:11.458Z,52.02
2022-10-20T00:31:44.399Z,52.02
2022-10-20T00:32:17.373Z,52.00
2022-10-20T00:32:50.286Z,52.10
2022-10-20T00:33:23.347Z,52.34
2022-10-20T00:33:56.554Z,52.46
2022-10-20T00:34:29.644Z,52.52
2022-10-20T00:35:02.540Z,52.64
2022-10-20T00:35:35.601Z,52.63
2022-10-20T00:36:09.004Z,52.77
2022-10-20T00:36:42.310Z,52.99
2022-10-20T00:37:15.559Z,53.06
2022-10-20T00:37:48.522Z,53.19
2022-10-20T00:38:21.637Z,53.23
2022-10-20T00:38:54.530Z,53.40
2022-10-20T00:39:27.520Z,53.54
2022-10-20T00:40:00.525Z,53.72
2022-10-20T00:40:33.682Z,53.81
2022-10-20T00:41:07.102Z,53.91
2022-10-20T00:41:40.037Z,54.00
2022-10-20T00:42:13.093Z,54.21
2022-10-20T00:42:46.036Z,54.31
2022-10-20T00:43:19.074Z,54.37
2022-10-20T00:43:52.151Z,54.45
2022-10-20T00:44:25.195Z,54.67
2022-10-20T00:44:58.248Z,54.73
2022-10-20T00:45:31.500Z,54.86
2022-10-20T00:46:04.511Z,54.97
2022-10-20T00:46:37.466Z,55.10
2022-10-20T00:47:10.540Z,55.31
2022-10-20T00:48:17.751Z,55.37
2022-10-20T00:48:50.738Z,55.55
2022-10-20T00:49:23.689Z,55.58
2022-10-20T00:49:56.717Z,55.69
2022-10-20T00:50:29.559Z,55.89
2022-10-20T00:51:02.462Z,56.39
2022-10-20T00:51:35.485Z,56.27
2022-10-20T00:52:08.751Z,56.13
2022-10-20T00:52:41.686Z,56.22
2022-10-20T00:53:14.650Z,56.29
2022-10-20T00:53:47.783Z,56.44
2022-10-20T00:54:20.728Z,56.61
2022-10-20T00:54:53.908Z,56.60
2022-10-20T00:55:27.181Z,56.78
2022-10-20T00:56:00.313Z,56.87
2022-10-20T00:56:33.306Z,57.02
2022-10-20T00:57:06.196Z,57.29
2022-10-20T00:57:39.224Z,57.22
2022-10-20T00:58:12.260Z,57.30
2022-10-20T00:58:45.306Z,57.51
2022-10-20T00:59:18.118Z,57.63
2022-10-20T00:59:51.113Z,57.55
2022-10-20T01:00:23.927Z,57.61
2022-10-20T01:00:56.884Z,57.74
2022-10-20T01:01:29.942Z,58.08
2022-10-20T01:02:03.145Z,57.98
2022-10-20T01:02:36.192Z,58.02
2022-10-20T01:03:09.171Z,58.09
2022-10-20T01:03:42.251Z,58.18
2022-10-20T01:04:15.239Z,58.30
2022-10-20T01:04:48.224Z,58.44
2022-10-20T01:05:21.235Z,58.46
2022-10-20T01:05:54.241Z,58.55
2022-10-20T01:06:27.265Z,58.73
2022-10-20T01:07:00.171Z,58.85
2022-10-20T01:07:33.320Z,58.84
2022-10-20T01:08:06.627Z,59.04
2022-10-20T01:08:39.766Z,59.49
2022-10-20T01:09:12.735Z,59.24
2022-10-20T01:09:45.789Z,59.29
2022-10-20T01:10:18.757Z,59.20
2022-10-20T01:10:51.885Z,59.26
2022-10-20T01:11:24.908Z,59.35
2022-10-20T01:11:57.801Z,59.49
2022-10-20T01:12:30.873Z,59.51
2022-10-20T01:13:03.938Z,59.52
2022-10-20T01:13:36.877Z,59.72
2022-10-20T01:14:09.904Z,59.69
2022-10-20T01:14:42.871Z,59.78
2022-10-20T01:15:16.010Z,59.80
2022-10-20T01:15:49.093Z,59.88
2022-10-20T01:16:22.246Z,59.97
2022-10-20T01:16:55.287Z,60.17
2022-10-20T01:17:28.150Z,60.20
2022-10-20T01:18:01.220Z,60.23
2022-10-20T01:18:34.214Z,60.27
2022-10-20T01:19:07.205Z,60.38
2022-10-20T01:19:40.146Z,60.38
2022-10-20T01:20:13.057Z,60.47
2022-10-20T01:20:46.075Z,60.68
2022-10-20T01:21:18.852Z,60.73
2022-10-20T01:21:51.728Z,60.89
2022-10-20T01:22:24.828Z,60.82
2022-10-20T01:22:57.798Z,60.89
2022-10-20T01:23:30.851Z,61.03
2022-10-20T01:24:03.927Z,61.02
2022-10-20T01:24:36.986Z,61.13
2022-10-20T01:25:13.166Z,61.11
2022-10-20T01:25:46.120Z,61.10
2022-10-20T01:26:19.120Z,61.21
2022-10-20T01:26:52.041Z,61.26
2022-10-20T01:27:25.127Z,61.38
2022-10-20T01:27:58.231Z,61.50
2022-10-20T01:28:31.193Z,61.54
2022-10-20T01:29:04.210Z,61.55
2022-10-20T01:29:37.237Z,61.68
2022-10-20T01:30:10.325Z,61.80
2022-10-20T01:30:43.369Z,62.03
2022-10-20T01:31:16.367Z,62.42
2022-10-20T01:31:49.292Z,63.95
2022-10-20T01:32:22.292Z,67.01
2022-10-20T01:32:55.348Z,70.27
2022-10-20T01:34:06.487Z,73.61
2022-10-20T01:34:39.833Z,73.13
2022-10-20T01:35:13.038Z,72.37
2022-10-20T01:35:46.075Z,71.64
2022-10-20T01:36:19.015Z,71.07
2022-10-20T01:36:52.177Z,70.58
2022-10-20T01:37:34.339Z,70.21
2022-10-20T01:38:18.117Z,69.75
2022-10-20T01:38:51.007Z,69.54
2022-10-20T01:39:23.898Z,69.40
2022-10-20T01:39:56.867Z,69.31
2022-10-20T01:40:29.819Z,69.15
2022-10-20T01:41:02.796Z,69.05
2022-10-20T01:41:35.660Z,68.96
2022-10-20T01:42:08.732Z,68.82
2022-10-20T01:42:41.664Z,68.58
2022-10-20T01:43:14.687Z,68.31
2022-10-20T01:43:47.709Z,68.07
2022-10-20T01:44:20.805Z,67.85
2022-10-20T01:44:53.911Z,67.63
2022-10-20T01:45:26.947Z,67.47
2022-10-20T01:45:59.794Z,67.33
2022-10-20T01:46:32.739Z,67.23
2022-10-20T01:47:05.763Z,67.23
2022-10-20T01:47:39.108Z,67.23
2022-10-20T01:48:12.723Z,67.13
2022-10-20T01:48:46.152Z,66.99
2022-10-20T01:49:19.190Z,67.08
2022-10-20T01:49:52.213Z,67.32
2022-10-20T01:50:25.220Z,67.24
2022-10-20T01:50:58.154Z,67.04
2022-10-20T01:51:31.070Z,66.90
2022-10-20T01:52:04.231Z,66.77
2022-10-20T01:52:37.466Z,66.64
2022-10-20T01:53:10.730Z,66.49
2022-10-20T01:53:43.677Z,66.36
2022-10-20T01:54:16.680Z,66.25
2022-10-20T01:54:49.777Z,66.14
2022-10-20T01:55:23.045Z,66.03
2022-10-20T01:55:56.347Z,65.97
2022-10-20T01:56:29.291Z,65.92
2022-10-20T01:57:02.277Z,65.86
2022-10-20T01:57:35.433Z,65.78
2022-10-20T01:58:08.357Z,65.73
2022-10-20T01:58:41.445Z,65.68
2022-10-20T01:59:14.376Z,65.61
2022-10-20T01:59:47.329Z,65.55
2022-10-20T02:00:20.109Z,65.53
2022-10-20T02:00:53.060Z,65.54
2022-10-20T02:01:26.067Z,65.47
2022-10-20T02:01:59.191Z,65.35
2022-10-20T02:02:32.184Z,65.19
2022-10-20T02:03:05.129Z,65.10
2022-10-20T02:03:38.151Z,65.08
2022-10-20T02:04:10.998Z,65.04
2022-10-20T02:04:43.919Z,64.96
2022-10-20T02:05:16.895Z,64.86
2022-10-20T02:05:49.848Z,64.76
2022-10-20T02:06:22.706Z,64.65
2022-10-20T02:06:55.691Z,64.58
2022-10-20T02:07:28.678Z,64.53
2022-10-20T02:08:01.696Z,64.50
2022-10-20T02:08:34.656Z,64.49
2022-10-20T02:09:07.952Z,64.44
2022-10-20T02:09:40.881Z,64.39
2022-10-20T02:10:13.727Z,64.32
2022-10-20T02:10:46.729Z,64.24
2022-10-20T02:11:19.684Z,64.17
2022-10-20T02:11:52.672Z,64.06
2022-10-20T02:12:25.594Z,63.98
2022-10-20T02:12:58.697Z,63.88
2022-10-20T02:13:31.728Z,63.89
2022-10-20T02:14:04.718Z,63.92
2022-10-20T02:14:37.681Z,63.95
2022-10-20T02:15:10.628Z,63.96
2022-10-20T02:15:43.642Z,64.00
2022-10-20T02:16:16.626Z,64.01
2022-10-20T02:16:49.542Z,63.99
2022-10-20T02:17:22.401Z,63.97
2022-10-20T02:17:55.397Z,63.94
2022-10-20T02:18:28.311Z,63.95
2022-10-20T02:19:01.356Z,63.98
2022-10-20T02:19:34.422Z,64.01
2022-10-20T02:20:07.415Z,64.02
2022-10-20T02:20:40.461Z,64.01
2022-10-20T02:21:13.495Z,63.98
2022-10-20T02:21:46.387Z,63.96
2022-10-20T02:22:19.429Z,63.94
2022-10-20T02:22:52.327Z,63.89
2022-10-20T02:23:25.376Z,63.84
2022-10-20T02:24:00.518Z,63.80
2022-10-20T02:24:33.603Z,63.74
2022-10-20T02:25:06.448Z,63.69
2022-10-20T02:25:39.592Z,63.63
2022-10-20T02:26:12.626Z,63.59
2022-10-20T02:26:45.628Z,63.51
2022-10-20T02:27:18.564Z,63.35
2022-10-20T02:27:51.599Z,63.18
2022-10-20T02:28:24.464Z,63.01
2022-10-20T02:28:57.608Z,62.91
2022-10-20T02:29:30.685Z,62.89
2022-10-20T02:30:03.931Z,62.86
2022-10-20T02:30:37.196Z,62.86
2022-10-20T02:31:10.073Z,62.81
2022-10-20T02:31:43.073Z,62.78
2022-10-20T02:32:16.321Z,62.78
2022-10-20T02:32:53.053Z,62.76
2022-10-20T02:33:26.136Z,62.77
2022-10-20T02:33:59.228Z,62.75
2022-10-20T02:34:32.192Z,62.73
2022-10-20T02:35:06.841Z,62.71
2022-10-20T02:35:40.162Z,62.75
2022-10-20T02:36:13.229Z,62.89
2022-10-20T02:36:46.261Z,63.01
2022-10-20T02:37:19.264Z,63.02
2022-10-20T02:37:52.334Z,62.96
2022-10-20T02:38:25.174Z,62.90
2022-10-20T02:38:58.134Z,62.84
2022-10-20T02:39:31.137Z,62.79
2022-10-20T02:40:04.299Z,62.81
2022-10-20T02:40:37.193Z,62.81
2022-10-20T02:41:10.178Z,62.79
2022-10-20T02:41:43.233Z,62.72
2022-10-20T02:42:17.521Z,62.64
2022-10-20T02:42:50.424Z,62.55
2022-10-20T02:43:23.319Z,62.49
2022-10-20T02:43:56.370Z,62.47
2022-10-20T02:44:29.405Z,62.48
2022-10-20T02:45:02.567Z,62.50
2022-10-20T02:45:35.727Z,62.53
2022-10-20T02:46:09.064Z,62.52
2022-10-20T02:46:42.039Z,62.54
2022-10-20T02:47:15.051Z,62.71
2022-10-20T02:47:47.951Z,62.90
2022-10-20T02:48:21.094Z,63.04
2022-10-20T02:48:54.286Z,63.11
2022-10-20T02:49:27.713Z,63.13
2022-10-20T02:50:01.865Z,63.15
2022-10-20T02:50:35.037Z,63.15
2022-10-20T02:51:08.044Z,63.15
2022-10-20T02:51:40.961Z,63.14
2022-10-20T02:52:13.892Z,63.12
2022-10-20T02:52:46.861Z,63.12
2022-10-20T02:53:19.767Z,63.10
2022-10-20T02:53:55.209Z,63.11
2022-10-20T02:54:29.205Z,63.14
2022-10-20T02:55:02.448Z,63.17
2022-10-20T02:55:35.615Z,63.22
2022-10-20T02:56:09.125Z,63.23
2022-10-20T02:56:42.391Z,63.27
2022-10-20T02:57:15.361Z,63.32
2022-10-20T02:57:49.002Z,63.33
2022-10-20T02:58:22.076Z,63.36
2022-10-20T02:58:55.167Z,63.36
2022-10-20T02:59:28.263Z,63.43
2022-10-20T03:00:01.590Z,63.48
2022-10-20T03:00:34.689Z,63.51
2022-10-20T03:01:08.214Z,63.59
2022-10-20T03:01:41.218Z,63.64
2022-10-20T03:02:14.279Z,63.67
2022-10-20T03:02:48.160Z,63.67
2022-10-20T03:03:21.155Z,63.65
2022-10-20T03:03:58.870Z,63.61
2022-10-20T03:04:31.851Z,63.65
2022-10-20T03:05:04.771Z,63.71
2022-10-20T03:05:37.798Z,63.79
2022-10-20T03:06:10.767Z,63.81
2022-10-20T03:06:43.755Z,63.84
2022-10-20T03:07:16.876Z,63.93
2022-10-20T03:07:49.842Z,64.01
2022-10-20T03:08:23.415Z,63.95
2022-10-20T03:08:56.527Z,63.90
2022-10-20T03:09:29.731Z,63.90
2022-10-20T03:10:02.789Z,63.88
2022-10-20T03:10:37.469Z,63.99
2022-10-20T03:11:10.442Z,64.14
2022-10-20T03:11:43.442Z,64.34
2022-10-20T03:12:16.481Z,64.53
2022-10-20T03:12:49.483Z,64.57
2022-10-20T03:13:22.637Z,64.39
2022-10-20T03:13:55.612Z,64.13
2022-10-20T03:14:28.694Z,63.88
2022-10-20T03:15:01.624Z,63.61
2022-10-20T03:15:34.551Z,63.32
2022-10-20T03:16:07.393Z,63.22
2022-10-20T03:16:40.457Z,63.18
2022-10-20T03:17:13.446Z,63.17
2022-10-20T03:17:46.484Z,63.12
2022-10-20T03:18:19.442Z,63.06
2022-10-20T03:18:52.523Z,63.06
2022-10-20T03:19:25.450Z,63.10
2022-10-20T03:19:58.459Z,63.15
2022-10-20T03:20:31.424Z,63.79
2022-10-20T03:21:04.443Z,66.27
2022-10-20T03:21:37.415Z,67.77
2022-10-20T03:22:10.305Z,67.64
2022-10-20T03:22:43.223Z,66.93
2022-10-20T03:23:17.843Z,66.15
2022-10-20T03:23:53.100Z,65.36
2022-10-20T03:24:25.957Z,64.83
2022-10-20T03:24:59.091Z,64.34
2022-10-20T03:25:32.082Z,63.89
2022-10-20T03:26:05.143Z,63.60
2022-10-20T03:26:38.131Z,63.31
2022-10-20T03:27:11.200Z,63.12
2022-10-20T03:27:44.178Z,62.93
2022-10-20T03:28:17.058Z,62.81
2022-10-20T03:28:50.110Z,62.85
2022-10-20T03:29:23.079Z,62.85
2022-10-20T03:29:56.243Z,62.79
2022-10-20T03:30:29.308Z,62.72
2022-10-20T03:31:02.292Z,62.70
2022-10-20T03:31:35.395Z,62.73
2022-10-20T03:32:08.474Z,62.74
2022-10-20T03:32:41.585Z,62.79
2022-10-20T03:33:14.610Z,62.84
2022-10-20T03:33:47.540Z,62.86
2022-10-20T03:34:20.527Z,62.85
2022-10-20T03:34:53.599Z,62.87
2022-10-20T03:35:26.483Z,62.84
2022-10-20T03:35:59.510Z,62.83
2022-10-20T03:36:32.492Z,62.82
2022-10-20T03:37:05.491Z,62.84
2022-10-20T03:37:38.366Z,62.87
2022-10-20T03:38:11.416Z,62.94
2022-10-20T03:38:44.358Z,62.96
2022-10-20T03:39:17.362Z,62.99
2022-10-20T03:39:50.209Z,63.19
2022-10-20T03:40:23.223Z,63.15
2022-10-20T03:40:56.178Z,63.12
2022-10-20T03:41:29.475Z,63.13
2022-10-20T03:42:02.875Z,63.07
2022-10-20T03:42:36.545Z,62.99
2022-10-20T03:43:09.750Z,62.96
2022-10-20T03:43:42.730Z,62.92
2022-10-20T03:44:15.839Z,62.94
2022-10-20T03:44:48.855Z,62.94
2022-10-20T03:45:21.967Z,63.10
2022-10-20T03:45:55.014Z,63.17
2022-10-20T03:46:27.996Z,63.38
2022-10-20T03:47:00.987Z,63.54
2022-10-20T03:47:34.245Z,63.69
2022-10-20T03:48:07.396Z,63.89
2022-10-20T03:48:40.355Z,64.08
2022-10-20T03:49:13.253Z,64.06
2022-10-20T03:49:46.185Z,64.06
2022-10-20T03:50:19.048Z,64.14
2022-10-20T03:50:52.011Z,64.08
2022-10-20T03:51:25.379Z,64.15
2022-10-20T03:51:59.102Z,64.23
2022-10-20T03:52:32.293Z,64.25
2022-10-20T03:53:05.467Z,64.25
2022-10-20T03:53:38.363Z,64.20
2022-10-20T03:54:11.295Z,64.15
2022-10-20T03:54:44.257Z,64.02
2022-10-20T03:55:17.384Z,63.98
2022-10-20T03:55:50.374Z,63.98
2022-10-20T03:56:23.488Z,64.00
2022-10-20T03:56:56.704Z,63.99
2022-10-20T03:57:29.848Z,63.72
2022-10-20T03:58:02.918Z,63.68
2022-10-20T03:58:35.873Z,63.63
2022-10-20T03:59:08.830Z,63.59
2022-10-20T03:59:42.113Z,63.60
2022-10-20T04:00:15.591Z,63.56
2022-10-20T04:00:48.641Z,63.58
2022-10-20T04:01:21.678Z,63.55
2022-10-20T04:01:54.897Z,63.61
2022-10-20T04:02:28.032Z,63.68
2022-10-20T04:03:01.298Z,63.88
2022-10-20T04:03:34.326Z,64.00
2022-10-20T04:04:07.395Z,63.88
2022-10-20T04:04:40.375Z,64.00
2022-10-20T04:05:13.416Z,64.17
2022-10-20T04:05:46.450Z,64.24
2022-10-20T04:06:19.373Z,64.11
2022-10-20T04:06:52.390Z,64.15
2022-10-20T04:07:25.522Z,64.13
2022-10-20T04:07:58.486Z,64.07
2022-10-20T04:08:31.558Z,64.07
2022-10-20T04:09:05.300Z,64.14
2022-10-20T04:09:38.380Z,64.16
2022-10-20T04:10:11.318Z,64.16
2022-10-20T04:10:44.234Z,64.18
2022-10-20T04:11:17.192Z,64.23
2022-10-20T04:11:50.177Z,64.34
2022-10-20T04:12:23.137Z,64.51
2022-10-20T04:12:56.067Z,64.58
2022-10-20T04:13:29.039Z,64.58
2022-10-20T04:14:02.093Z,64.54
2022-10-20T04:14:35.093Z,64.43
2022-10-20T04:15:08.289Z,64.30
2022-10-20T04:15:41.258Z,64.25
2022-10-20T04:16:14.432Z,64.31
2022-10-20T04:16:47.532Z,64.35
2022-10-20T04:17:20.697Z,64.25
2022-10-20T04:17:53.685Z,64.16
2022-10-20T04:18:26.693Z,64.14
2022-10-20T04:18:59.640Z,64.18
2022-10-20T04:19:32.925Z,64.19
2022-10-20T04:20:05.964Z,64.23
2022-10-20T04:20:40.696Z,64.27
2022-10-20T04:21:16.645Z,64.28
2022-10-20T04:21:49.660Z,64.24
2022-10-20T04:22:22.697Z,64.32
2022-10-20T04:22:55.795Z,64.47
2022-10-20T04:23:28.975Z,64.64
2022-10-20T04:24:01.996Z,64.70
2022-10-20T04:24:34.962Z,64.74
2022-10-20T04:25:07.977Z,64.87
2022-10-20T04:25:45.597Z,64.94
2022-10-20T04:26:18.493Z,64.93
2022-10-20T04:26:51.516Z,64.95
2022-10-20T04:27:25.016Z,64.85
2022-10-20T04:27:58.150Z,64.70
2022-10-20T04:28:31.148Z,64.72
2022-10-20T04:29:04.360Z,64.66
2022-10-20T04:29:37.299Z,64.59
2022-10-20T04:30:10.289Z,64.52
2022-10-20T04:30:43.371Z,64.42
2022-10-20T04:31:16.203Z,64.42
2022-10-20T04:31:49.409Z,64.48
2022-10-20T04:32:22.439Z,64.49
2022-10-20T04:32:55.563Z,64.56
2022-10-20T04:33:28.517Z,64.60
2022-10-20T04:34:01.553Z,64.60
2022-10-20T04:34:34.700Z,64.66
2022-10-20T04:35:07.706Z,64.69
2022-10-20T04:35:40.796Z,64.73
2022-10-20T04:36:14.038Z,64.74
2022-10-20T04:36:47.053Z,64.73
2022-10-20T04:37:20.059Z,64.70
2022-10-20T04:37:53.085Z,64.75
2022-10-20T04:38:26.016Z,64.80
2022-10-20T04:38:58.942Z,64.84
2022-10-20T04:39:31.929Z,64.85
2022-10-20T04:40:05.018Z,64.86
2022-10-20T04:40:38.162Z,64.88
2022-10-20T04:41:11.695Z,64.90
2022-10-20T04:41:44.746Z,64.92
2022-10-20T04:42:18.074Z,64.94
2022-10-20T04:42:51.124Z,64.85
2022-10-20T04:43:24.237Z,64.82
2022-10-20T04:43:57.286Z,64.76
2022-10-20T04:44:30.526Z,64.46
2022-10-20T04:45:03.589Z,64.42
2022-10-20T04:45:36.478Z,64.41
2022-10-20T04:46:10.130Z,64.46
2022-10-20T04:46:43.188Z,64.51
2022-10-20T04:47:16.072Z,64.48
2022-10-20T04:47:49.040Z,64.49
2022-10-20T04:48:22.105Z,64.49
2022-10-20T04:48:55.201Z,64.39
2022-10-20T04:49:28.509Z,64.35
2022-10-20T04:50:01.478Z,64.34
2022-10-20T04:50:34.516Z,64.38
2022-10-20T04:51:07.615Z,64.39
2022-10-20T04:51:40.562Z,64.41
2022-10-20T04:52:13.541Z,64.52
2022-10-20T04:52:46.476Z,64.58
2022-10-20T04:53:19.613Z,64.58
2022-10-20T04:53:52.620Z,64.49
2022-10-20T04:54:25.643Z,64.46
2022-10-20T04:54:58.688Z,64.50
2022-10-20T04:55:31.651Z,64.55
2022-10-20T04:56:04.599Z,64.66
2022-10-20T04:56:37.816Z,64.80
2022-10-20T04:57:11.503Z,64.89
2022-10-20T04:57:44.464Z,65.02
2022-10-20T04:58:17.509Z,65.00
2022-10-20T04:58:50.393Z,64.91
2022-10-20T04:59:23.453Z,64.96
2022-10-20T04:59:56.544Z,64.87
2022-10-20T05:00:29.704Z,64.88
2022-10-20T05:01:02.735Z,64.89
2022-10-20T05:01:36.278Z,64.96
2022-10-20T05:02:11.551Z,65.09
2022-10-20T05:02:44.482Z,64.82
2022-10-20T05:03:19.279Z,64.74
2022-10-20T05:03:52.406Z,64.66
2022-10-20T05:04:25.502Z,64.76
2022-10-20T05:04:58.761Z,64.87
2022-10-20T05:05:31.825Z,64.94
2022-10-20T05:06:04.696Z,64.98
2022-10-20T05:06:37.668Z,65.06
2022-10-20T05:07:10.736Z,65.12
2022-10-20T05:07:43.731Z,65.22
2022-10-20T05:08:16.794Z,65.30
2022-10-20T05:08:50.067Z,65.27
2022-10-20T05:09:23.238Z,65.22
2022-10-20T05:09:56.345Z,65.21
2022-10-20T05:10:32.072Z,65.18
2022-10-20T05:11:08.885Z,65.24
2022-10-20T05:11:41.828Z,65.27
2022-10-20T05:12:52.606Z,65.31
2022-10-20T05:13:25.747Z,65.30
2022-10-20T05:13:58.647Z,65.34
2022-10-20T05:14:31.583Z,65.32
2022-10-20T05:15:04.601Z,65.24
2022-10-20T05:15:37.687Z,65.27
2022-10-20T05:16:10.736Z,65.30
2022-10-20T05:16:43.661Z,65.29
2022-10-20T05:17:16.623Z,65.34
2022-10-20T05:17:49.793Z,65.38
2022-10-20T05:18:22.832Z,65.38
2022-10-20T05:18:57.871Z,65.44
2022-10-20T05:19:30.933Z,64.90
2022-10-20T05:20:03.893Z,64.57
2022-10-20T05:20:41.246Z,64.75
2022-10-20T05:21:24.343Z,64.90
2022-10-20T05:21:57.594Z,64.91
2022-10-20T05:22:30.700Z,64.92
2022-10-20T05:23:04.004Z,65.04
2022-10-20T05:23:36.944Z,65.09
2022-10-20T05:24:09.861Z,65.09
2022-10-20T05:24:42.842Z,65.08
2022-10-20T05:25:35.559Z,65.08
2022-10-20T05:26:09.053Z,65.10
2022-10-20T05:26:42.113Z,65.14
2022-10-20T05:27:15.035Z,65.16
2022-10-20T05:27:47.992Z,65.18
2022-10-20T05:28:20.891Z,65.15
2022-10-20T05:28:53.815Z,65.16
2022-10-20T05:29:26.859Z,65.18
2022-10-20T05:29:59.844Z,65.19
2022-10-20T05:30:32.889Z,65.16
2022-10-20T05:31:05.879Z,65.11
2022-10-20T05:31:38.923Z,65.08
2022-10-20T05:32:12.196Z,65.03
2022-10-20T05:32:45.216Z,65.05
2022-10-20T05:33:18.162Z,65.13
2022-10-20T05:33:51.185Z,65.07
2022-10-20T05:34:24.324Z,65.02
2022-10-20T05:34:57.527Z,64.63
2022-10-20T05:35:30.563Z,64.56
2022-10-20T05:36:03.515Z,64.60
2022-10-20T05:36:36.536Z,64.40
2022-10-20T05:37:09.545Z,64.16
2022-10-20T05:37:42.783Z,64.27
2022-10-20T05:38:15.942Z,64.35
2022-10-20T05:38:49.038Z,64.39
2022-10-20T05:39:22.108Z,64.41
2022-10-20T05:39:55.094Z,64.45
2022-10-20T05:40:28.370Z,64.52
2022-10-20T05:41:01.582Z,64.54
2022-10-20T05:41:37.967Z,64.56
2022-10-20T05:42:13.415Z,64.58
2022-10-20T05:42:46.532Z,64.57
2022-10-20T05:43:19.557Z,64.50
2022-10-20T05:43:52.629Z,64.51
2022-10-20T05:44:25.588Z,64.38
2022-10-20T05:44:58.609Z,64.22
2022-10-20T05:45:31.601Z,64.27
2022-10-20T05:46:04.541Z,64.30
2022-10-20T05:46:42.765Z,64.27
2022-10-20T05:47:15.766Z,64.35
2022-10-20T05:47:48.774Z,64.41
2022-10-20T05:48:21.707Z,64.40
2022-10-20T05:48:55.336Z,64.33
2022-10-20T05:49:28.495Z,64.27
2022-10-20T05:50:01.401Z,64.20
2022-10-20T05:50:34.680Z,64.23
2022-10-20T05:51:09.503Z,64.01
2022-10-20T05:51:45.265Z,64.08
2022-10-20T05:52:18.334Z,64.17
2022-10-20T05:52:51.900Z,64.20
2022-10-20T05:53:24.945Z,64.21
2022-10-20T05:53:57.838Z,64.43
2022-10-20T05:54:30.814Z,65.02
2022-10-20T05:55:03.845Z,64.72
2022-10-20T05:55:36.807Z,64.59
2022-10-20T05:56:10.070Z,64.60
2022-10-20T05:56:43.099Z,64.54
2022-10-20T05:57:16.166Z,64.45
2022-10-20T05:57:49.184Z,64.35
2022-10-20T05:58:23.156Z,64.29
2022-10-20T05:58:56.154Z,64.23
2022-10-20T05:59:29.181Z,64.17
2022-10-20T06:00:02.255Z,64.13
2022-10-20T06:00:41.897Z,64.06
2022-10-20T06:01:19.407Z,64.03
2022-10-20T06:01:53.228Z,63.99
2022-10-20T06:02:26.206Z,64.00
2022-10-20T06:02:59.217Z,64.05
2022-10-20T06:03:32.283Z,64.01
2022-10-20T06:04:05.250Z,63.94
2022-10-20T06:04:38.151Z,63.93
2022-10-20T06:05:11.222Z,63.93
2022-10-20T06:05:44.226Z,63.93
2022-10-20T06:06:17.137Z,63.94
2022-10-20T06:06:50.206Z,63.95
2022-10-20T06:07:23.291Z,63.95
2022-10-20T06:07:56.419Z,63.94
2022-10-20T06:08:29.518Z,63.98
2022-10-20T06:09:02.522Z,64.03
2022-10-20T06:09:35.631Z,64.13
2022-10-20T06:10:08.650Z,64.20
2022-10-20T06:10:41.721Z,64.21
2022-10-20T06:11:14.671Z,64.23
2022-10-20T06:11:47.750Z,64.30
2022-10-20T06:12:20.828Z,64.34
2022-10-20T06:12:53.706Z,64.33
2022-10-20T06:13:26.684Z,64.31
2022-10-20T06:13:59.622Z,64.28
2022-10-20T06:14:32.629Z,64.30
2022-10-20T06:15:05.650Z,64.31
2022-10-20T06:15:38.566Z,64.32
2022-10-20T06:16:11.570Z,64.38
2022-10-20T06:16:44.520Z,64.31
2022-10-20T06:17:17.428Z,64.30
2022-10-20T06:17:50.304Z,64.33
2022-10-20T06:18:23.253Z,64.37
2022-10-20T06:18:56.269Z,64.42
2022-10-20T06:19:29.438Z,64.49
2022-10-20T06:20:02.389Z,64.56
2022-10-20T06:20:35.435Z,64.62
2022-10-20T06:21:08.447Z,64.55
2022-10-20T06:22:19.198Z,64.53
2022-10-20T06:22:52.253Z,64.54
2022-10-20T06:23:25.197Z,64.62
2022-10-20T06:23:58.119Z,64.62
2022-10-20T06:24:31.137Z,64.59
2022-10-20T06:25:04.125Z,64.55
2022-10-20T06:25:37.205Z,64.53
2022-10-20T06:26:10.126Z,64.41
2022-10-20T06:26:43.067Z,64.43
2022-10-20T06:27:16.171Z,64.49
2022-10-20T06:27:49.374Z,64.51
2022-10-20T06:28:22.476Z,64.55
2022-10-20T06:28:58.628Z,64.56
2022-10-20T06:29:34.366Z,64.58
2022-10-20T06:30:07.947Z,64.57
2022-10-20T06:30:41.088Z,64.56
2022-10-20T06:31:14.145Z,64.59
2022-10-20T06:31:47.189Z,64.60
2022-10-20T06:32:20.199Z,64.55
2022-10-20T06:32:53.149Z,64.58
2022-10-20T06:33:26.407Z,64.55
2022-10-20T06:33:59.321Z,64.55
2022-10-20T06:34:32.256Z,64.60
2022-10-20T06:35:05.363Z,64.62
2022-10-20T06:35:38.521Z,64.65
2022-10-20T06:36:11.609Z,64.57
2022-10-20T06:36:44.633Z,64.50
2022-10-20T06:37:17.768Z,64.48
2022-10-20T06:37:51.237Z,64.46
2022-10-20T06:38:24.681Z,64.59
2022-10-20T06:38:57.695Z,64.61
2022-10-20T06:39:30.922Z,64.53
2022-10-20T06:40:08.950Z,64.51
2022-10-20T06:40:41.996Z,64.54
2022-10-20T06:41:15.075Z,64.57
2022-10-20T06:41:50.525Z,64.59
2022-10-20T06:42:23.502Z,64.91
2022-10-20T06:43:34.306Z,64.89
2022-10-20T06:44:07.798Z,64.79
2022-10-20T06:44:40.904Z,64.85
2022-10-20T06:45:16.942Z,64.88
2022-10-20T06:45:51.011Z,64.97
2022-10-20T06:46:23.902Z,64.97
2022-10-20T06:46:57.082Z,64.96
2022-10-20T06:47:30.090Z,64.99
2022-10-20T06:48:03.144Z,64.96
2022-10-20T06:48:36.308Z,64.93
2022-10-20T06:49:09.449Z,64.91
2022-10-20T06:49:42.465Z,64.90
2022-10-20T06:50:15.899Z,64.94
2022-10-20T06:50:49.301Z,64.97
2022-10-20T06:51:22.333Z,64.99
2022-10-20T06:51:55.633Z,65.07
2022-10-20T06:52:28.653Z,65.12
2022-10-20T06:53:01.673Z,65.10
2022-10-20T06:53:34.716Z,65.12
2022-10-20T06:54:08.015Z,65.18
2022-10-20T06:54:40.984Z,65.18
2022-10-20T06:55:13.913Z,65.15
2022-10-20T06:55:46.859Z,65.17
2022-10-20T06:56:19.902Z,65.23
2022-10-20T06:56:52.904Z,65.24
2022-10-20T06:57:26.144Z,65.22
2022-10-20T06:57:59.118Z,65.18
2022-10-20T06:58:32.059Z,65.12
2022-10-20T06:59:05.030Z,65.14
2022-10-20T06:59:39.037Z,65.19
2022-10-20T07:00:12.084Z,65.24
2022-10-20T07:00:45.102Z,65.19
2022-10-20T07:01:18.243Z,65.18
2022-10-20T07:01:51.324Z,65.32
2022-10-20T07:02:24.247Z,65.41
2022-10-20T07:02:57.194Z,65.29
2022-10-20T07:03:30.189Z,65.29
2022-10-20T07:04:03.202Z,65.25
2022-10-20T07:04:36.127Z,65.22
2022-10-20T07:05:09.126Z,65.24
2022-10-20T07:05:42.208Z,65.27
2022-10-20T07:06:15.106Z,65.25
2022-10-20T07:06:48.165Z,65.24
2022-10-20T07:07:21.399Z,65.34
2022-10-20T07:07:54.458Z,65.53
2022-10-20T07:08:27.658Z,65.48
2022-10-20T07:09:00.782Z,65.47
2022-10-20T07:09:33.712Z,65.74
2022-10-20T07:10:06.730Z,65.80
2022-10-20T07:10:39.854Z,65.72
2022-10-20T07:11:12.901Z,65.88